Departure ICAO
Arrival ICAO

The revolutionary moving map for travelling passengers has finally arrived
More information here

LFMD Cannes Mandelieu - EGKB London Biggin Hill


Distance 545 NM


LFMN Nice Cote D'Azur VFR CAVOK

METAR LFMN 200000Z 34005KT 330V040 CAVOK 08/M01 Q1001 NOSIG

TAF LFMN 192000Z 1921/2103 35012KT CAVOK BECMG 2009/2011 24010KT BECMG 2017/2019 36010KT BKN030 TEMPO 2100/2103 08015KT SHRA FEW025TCU


LFMD Cannes Mandelieu VFR CAVOK

METAR LFMD 200000Z AUTO 01006KT 340V040 CAVOK 04/00 Q1001

TAF LFMD 191400Z 1915/2015 09010KT 9999 BKN040 BECMG 1917/1919 36006KT CAVOK BECMG 2003/2005 NSC BECMG 2010/2012 14010KT


LFLB Chambery Aix Les Bains VFR

METAR LFLB 200000Z AUTO 01008KT 9999 -RA BKN012 OVC019 03/02 Q1003

TAF LFLB 191700Z 1918/2018 34005KT 9999 BKN023 TEMPO 1918/2009 4000 -SN OVC003 BECMG 2009/2011 BKN060


LFLS Grenoble Saint Geoirs IFR CAT I

METAR LFLS 200000Z AUTO 00000KT 1500 1400 R09/2000U R27/1900U -SN BR FEW004 OVC012 M00/M01 Q1002

TAF AMD LFLS 191818Z 1918/2015 VRB02KT 9999 BKN018 TEMPO 1918/2009 3000 -SN OVC004 PROB40 TEMPO 2000/2006 1500 SN VV///


LFLL Lyon Saint Exupery IFR CAT I

METAR LFLL 200000Z 12003KT 1900 -SN BR SCT010 BKN030 01/00 Q1003 NOSIG

TAF LFLL 192300Z 2000/2106 VRB02KT 3000 -SN BR BKN009 BKN040 TEMPO 2000/2003 1200 SN BKN004 OVC030 BECMG 2007/2009 16008KT 9999 NSW BKN040 TEMPO 2021/2103 4000 RA BKN009 OVC030


LFLY Lyon Bron VFR

METAR LFLY 200000Z AUTO 14003KT 7000 FEW007 BKN076 OVC090 01/M01 Q1003 TEMPO 0500 SN BCFG VV///

TAF LFLY 192300Z 2000/2024 VRB02KT 9999 BKN018 BKN025 TEMPO 2000/2009 2000 -SN BR OVC004 PROB40 TEMPO 2000/2006 0500 SN BCFG VV/// BECMG 2009/2012 18012KT PROB30 TEMPO 2018/2024 -RA OVC012


LFLN Saint Yan VFR

METAR LFLN 200000Z AUTO 00000KT 8000 OVC017 01/M01 Q1002

TAF AMD LFLN 191831Z 1918/2003 05003KT 9999 OVC025 TEMPO 1918/2003 -RASN OVC014 PROB40 TEMPO 1921/2003 1000 -SN OVC003


LFPM Melun Villaroche VFR

METAR LFPM 200000Z AUTO 03007KT 350V080 9999 -RA OVC017 03/01 Q1005


LFPO Paris Orly VFR

METAR LFPO 200000Z 04013KT 9999 -RA BKN023 03/00 Q1006 NOSIG

TAF LFPO 192300Z 2000/2106 04010G20KT 9999 BKN020 BECMG 2000/2002 BKN012 TEMPO 2000/2018 2500 -SN BKN004 BECMG 2018/2020 VRB03KT TEMPO 2018/2106 1200 BR OVC002 PROB30 TEMPO 2021/2106 0600 FG VV///


LFPG Paris Charles De Gaulle VFR

METAR LFPG 200000Z 04014KT 9999 -RASN SCT012 BKN016 02/01 Q1006 NOSIG

TAF LFPG 192300Z 2000/2106 03012KT 9999 BKN030 TX02/2000Z TNM02/2106Z BECMG 2000/2002 BKN012 TEMPO 2000/2018 4000 -SN PROB40 2000/2018 1200 -SN BKN004 BECMG 2020/2022 3000 BR BKN003 PROB40 2022/2106 0800 FG OVC001


LFPB Paris Le Bourget VFR

METAR LFPB 200000Z AUTO 02011KT 9999 -RA BKN019 BKN028 BKN049 03/00 Q1006 TEMPO 1200 -SN BKN004

TAF LFPB 192300Z 2000/2024 03012KT 9999 BKN030 BECMG 2000/2002 BKN012 TEMPO 2000/2018 4000 -SN PROB40 2000/2018 1200 -SN BKN004 BECMG 2020/2022 3000 BR BKN003 PROB40 2022/2024 0800 FG OVC001


LFPV Villacoublay Velizy VFR

METAR LFPV 200000Z AUTO 04013KT 9999 OVC018 03/M00 Q1005 TEMPO 3000 -SN BKN004

TAF LFPV 192000Z 1921/2021 02010KT 9999 SCT036 BKN052 BKN074 BECMG 1922/1924 05005KT 4500 -RA OVC008 TEMPO 2000/2012 3000 -SN TEMPO 2000/2016 BKN004 BECMG 2017/2019 VRB02KT 9999 NSW BKN002 PROB40 TEMPO 2020/2021 BKN001


LFPN Toussous Le Noble VFR

METAR LFPN 200000Z AUTO 04011KT 9999 OVC020 03/M01 Q1005

TAF LFPN 191700Z 1918/2003 04010G20KT 9999 BKN020 BECMG 1921/1923 -SNRA BKN012 BECMG 1923/2001 -SN BKN006 TEMPO 2001/2003 1500 SN OVC002


LFPT Pontoise Cormeilles En Vexin VFR

METAR LFPT 200000Z AUTO 04013KT 9999 FEW025 03/M00 Q1006


LFOB Beauvais Tille VFR

METAR LFOB 200000Z AUTO 04012KT 9999 -RADZ BKN015 BKN020 BKN026 03/01 Q1007 BECMG OVC013

TAF LFOB 192300Z 2000/2024 05015KT 9999 BKN030 BECMG 2000/2003 OVC013 TEMPO 2003/2024 1200 SN OVC005


LFAT Le Tourquet Paris Plage VFR

METAR LFAT 200000Z AUTO 06011KT 030V090 9999 SCT025 SCT054 03/M00 Q1010

TAF LFAT 191400Z 1915/1924 06013KT 9999 BKN020 TEMPO 1915/1924 06015G25KT


EGMD Lydd VFR

METAR EGMD 192350Z AUTO 07027KT 9999 BKN028/// 07/02 Q1012

TAF EGMD 192259Z 2000/2009 07022KT 9999 SCT030 TEMPO 2000/2009 08025G35KT 6000 SHRA BKN014 PROB40 TEMPO 2000/2009 4000 +SHRA BKN008


EGKA Shoreham By Sea Shoreham VFR

METAR EGKA 191950Z 02013KT 9999 -DZ FEW014 SCT025 04/03 Q1014


EGKB London Biggin Hill VFR

METAR EGKB 192220Z 06006KT 030V090 9999 SCT030 03/02 Q1014 RESHRA

TAF EGKB 192013Z 1921/1923 05012KT 9999 SCT030 PROB30 TEMPO 1921/1923 07017G27KT 6000 SHRA BKN014


EGKK London Gatwick VFR

METAR EGKK 192350Z 04009KT 9999 FEW022 04/02 Q1013

TAF EGKK 192259Z 2000/2106 05013KT 9999 BKN020 TEMPO 2000/2021 6000 SHRA BKN014 PROB30 TEMPO 2000/2016 04016G26KT 4000 +SHRA BKN008 BECMG 2021/2024 07003KT PROB30 TEMPO 2021/2102 5000 BR BKN007 TEMPO 2102/2106 3000 BR BKN003 BECMG 2103/2106 14010KT


EGLC London City VFR

METAR EGLC 192350Z AUTO 05009KT 010V080 9999 FEW042 06/02 Q1014

TAF AMD EGLC 192001Z 1920/1921 07012KT 9999 SCT030 TEMPO 1920/1921 06017G27KT 3000 +SHRA BKN014


EGSS London Stansted VFR

METAR EGSS 192350Z AUTO 04012KT 9999 -RA FEW031 SCT038 04/02 Q1015

TAF EGSS 192254Z 2000/2106 05012KT 9999 BKN030 TEMPO 2000/2103 7000 SHRA BKN012 PROB30 TEMPO 2000/2016 06017G27KT 4000 +SHRA BKN006 BECMG 2017/2020 12005KT PROB30 2020/2106 3000 BR BKN005


EGLL London Heathrow VFR

METAR EGLL 192350Z AUTO 04010G20KT 9999 -RA FEW034 05/02 Q1014 TEMPO SHRA

TAF EGLL 192253Z 2000/2106 05012KT 9999 SCT030 PROB40 TEMPO 2000/2022 07015G25KT 6000 SHRA BKN012 TEMPO 2022/2106 BKN010 BECMG 2100/2103 11006KT PROB30 TEMPO 2100/2106 6000 BKN005


EGWU Northolt VFR

METAR EGWU 192350Z 07016KT 9999 -SHRA FEW020 BKN060 05/02 Q1014 BLU TEMPO 7000 SHRA SCT018 WHT

TAF EGWU 192234Z 2000/2018 06010KT 9999 FEW015 SCT045 PROB40 TEMPO 2000/2018 6000 SHRA BKN012 PROB30 TEMPO 2010/2015 05015G25KT


EGLF London Farnborough VFR

METAR EGLF 192150Z 06008KT 9999 FEW001 SCT028 04/03 Q1015

TAF EGLF 191659Z 1918/1922 07012KT 9999 SCT030 PROB30 TEMPO 1918/1922 07015G25KT 6000 SHRA BKN014



NOTAMS LFMD

 NOTAMS EGKB